sensor_id;sensor_type;location;lat;lon;timestamp;P1;durP1;ratioP1;P2;durP2;ratioP2
6999;SDS011;3540;53.242;10.408;2023-03-01T00:02:03;24.57;;;10.77;;
6999;SDS011;3540;53.242;10.408;2023-03-01T00:04:29;20.77;;;9.50;;
6999;SDS011;3540;53.242;10.408;2023-03-01T00:06:55;16.07;;;7.57;;
6999;SDS011;3540;53.242;10.408;2023-03-01T00:09:21;12.60;;;6.93;;
6999;SDS011;3540;53.242;10.408;2023-03-01T00:11:47;11.97;;;7.20;;
6999;SDS011;3540;53.242;10.408;2023-03-01T00:14:13;11.13;;;6.80;;
6999;SDS011;3540;53.242;10.408;2023-03-01T00:16:41;11.57;;;6.50;;
6999;SDS011;3540;53.242;10.408;2023-03-01T00:19:11;12.27;;;6.50;;
6999;SDS011;3540;53.242;10.408;2023-03-01T00:21:39;14.47;;;6.63;;
6999;SDS011;3540;53.242;10.408;2023-03-01T00:24:05;12.77;;;6.80;;
6999;SDS011;3540;53.242;10.408;2023-03-01T00:26:31;10.17;;;6.67;;
6999;SDS011;3540;53.242;10.408;2023-03-01T00:28:57;11.47;;;6.83;;
6999;SDS011;3540;53.242;10.408;2023-03-01T00:31:24;11.20;;;6.57;;
6999;SDS011;3540;53.242;10.408;2023-03-01T00:33:53;13.77;;;6.87;;
6999;SDS011;3540;53.242;10.408;2023-03-01T00:36:23;11.63;;;6.50;;
6999;SDS011;3540;53.242;10.408;2023-03-01T00:38:50;11.37;;;6.60;;
6999;SDS011;3540;53.242;10.408;2023-03-01T00:41:17;10.50;;;6.53;;
6999;SDS011;3540;53.242;10.408;2023-03-01T00:43:47;11.87;;;6.50;;
6999;SDS011;3540;53.242;10.408;2023-03-01T00:46:15;12.70;;;6.97;;
6999;SDS011;3540;53.242;10.408;2023-03-01T00:48:43;11.07;;;6.40;;
6999;SDS011;3540;53.242;10.408;2023-03-01T00:53:39;12.43;;;6.43;;
6999;SDS011;3540;53.242;10.408;2023-03-01T00:56:05;10.33;;;6.10;;
6999;SDS011;3540;53.242;10.408;2023-03-01T00:58:33;11.17;;;6.60;;
6999;SDS011;3540;53.242;10.408;2023-03-01T01:00:59;11.77;;;6.47;;
6999;SDS011;3540;53.242;10.408;2023-03-01T01:03:25;12.03;;;6.77;;
6999;SDS011;3540;53.242;10.408;2023-03-01T01:05:51;11.20;;;6.40;;
6999;SDS011;3540;53.242;10.408;2023-03-01T01:08:18;11.87;;;6.73;;
6999;SDS011;3540;53.242;10.408;2023-03-01T01:10:45;11.07;;;6.07;;
6999;SDS011;3540;53.242;10.408;2023-03-01T01:13:11;11.53;;;6.00;;
6999;SDS011;3540;53.242;10.408;2023-03-01T01:15:37;11.73;;;6.00;;
6999;SDS011;3540;53.242;10.408;2023-03-01T01:18:03;10.20;;;6.10;;
6999;SDS011;3540;53.242;10.408;2023-03-01T01:20:28;11.93;;;6.57;;
6999;SDS011;3540;53.242;10.408;2023-03-01T01:22:54;13.03;;;6.67;;
6999;SDS011;3540;53.242;10.408;2023-03-01T01:25:20;10.20;;;6.17;;
6999;SDS011;3540;53.242;10.408;2023-03-01T01:27:46;10.80;;;5.93;;
6999;SDS011;3540;53.242;10.408;2023-03-01T01:30:12;8.93;;;5.50;;
6999;SDS011;3540;53.242;10.408;2023-03-01T01:32:38;12.23;;;5.90;;
6999;SDS011;3540;53.242;10.408;2023-03-01T01:35:03;9.53;;;5.50;;
6999;SDS011;3540;53.242;10.408;2023-03-01T01:37:29;7.50;;;5.30;;
6999;SDS011;3540;53.242;10.408;2023-03-01T01:39:58;11.13;;;6.20;;
6999;SDS011;3540;53.242;10.408;2023-03-01T01:42:25;11.87;;;5.70;;
6999;SDS011;3540;53.242;10.408;2023-03-01T01:47:51;9.97;;;5.47;;
6999;SDS011;3540;53.242;10.408;2023-03-01T01:50:17;8.17;;;5.60;;
6999;SDS011;3540;53.242;10.408;2023-03-01T01:52:44;9.80;;;5.37;;
6999;SDS011;3540;53.242;10.408;2023-03-01T01:55:12;9.70;;;5.97;;
6999;SDS011;3540;53.242;10.408;2023-03-01T01:57:45;10.33;;;6.27;;
6999;SDS011;3540;53.242;10.408;2023-03-01T02:00:21;7.67;;;5.03;;
6999;SDS011;3540;53.242;10.408;2023-03-01T02:02:49;7.80;;;5.10;;
6999;SDS011;3540;53.242;10.408;2023-03-01T02:05:28;10.13;;;5.73;;
6999;SDS011;3540;53.242;10.408;2023-03-01T02:08:11;7.90;;;5.53;;
6999;SDS011;3540;53.242;10.408;2023-03-01T02:10:38;9.57;;;5.60;;
6999;SDS011;3540;53.242;10.408;2023-03-01T02:13:05;7.80;;;4.87;;
6999;SDS011;3540;53.242;10.408;2023-03-01T02:15:32;13.60;;;4.87;;
6999;SDS011;3540;53.242;10.408;2023-03-01T02:18:01;9.03;;;5.23;;
6999;SDS011;3540;53.242;10.408;2023-03-01T02:23:17;9.13;;;5.20;;
6999;SDS011;3540;53.242;10.408;2023-03-01T02:25:55;11.07;;;4.70;;
6999;SDS011;3540;53.242;10.408;2023-03-01T02:28:42;9.87;;;5.30;;
6999;SDS011;3540;53.242;10.408;2023-03-01T02:31:09;7.63;;;4.97;;
6999;SDS011;3540;53.242;10.408;2023-03-01T02:33:55;11.00;;;5.43;;
6999;SDS011;3540;53.242;10.408;2023-03-01T02:36:26;11.00;;;5.20;;
6999;SDS011;3540;53.242;10.408;2023-03-01T02:38:56;9.63;;;4.83;;
6999;SDS011;3540;53.242;10.408;2023-03-01T02:41:24;8.47;;;5.20;;
6999;SDS011;3540;53.242;10.408;2023-03-01T02:43:53;8.87;;;4.50;;
6999;SDS011;3540;53.242;10.408;2023-03-01T02:46:21;8.33;;;5.40;;
6999;SDS011;3540;53.242;10.408;2023-03-01T02:48:52;8.53;;;4.80;;
6999;SDS011;3540;53.242;10.408;2023-03-01T02:56:24;8.10;;;5.03;;
6999;SDS011;3540;53.242;10.408;2023-03-01T02:58:51;8.87;;;5.47;;
6999;SDS011;3540;53.242;10.408;2023-03-01T03:01:18;9.20;;;4.97;;
6999;SDS011;3540;53.242;10.408;2023-03-01T03:03:44;9.30;;;5.47;;
6999;SDS011;3540;53.242;10.408;2023-03-01T03:06:09;11.03;;;5.27;;
6999;SDS011;3540;53.242;10.408;2023-03-01T03:08:35;7.83;;;4.30;;
6999;SDS011;3540;53.242;10.408;2023-03-01T03:11:01;10.37;;;5.10;;
6999;SDS011;3540;53.242;10.408;2023-03-01T03:13:27;8.20;;;4.97;;
6999;SDS011;3540;53.242;10.408;2023-03-01T03:15:54;7.43;;;4.70;;
6999;SDS011;3540;53.242;10.408;2023-03-01T03:18:20;7.30;;;4.93;;
6999;SDS011;3540;53.242;10.408;2023-03-01T03:20:46;8.10;;;4.97;;
6999;SDS011;3540;53.242;10.408;2023-03-01T03:23:12;12.13;;;4.97;;
6999;SDS011;3540;53.242;10.408;2023-03-01T03:25:38;7.70;;;4.83;;
6999;SDS011;3540;53.242;10.408;2023-03-01T03:28:05;10.10;;;4.50;;
6999;SDS011;3540;53.242;10.408;2023-03-01T03:30:35;6.07;;;4.20;;
6999;SDS011;3540;53.242;10.408;2023-03-01T03:33:03;5.50;;;3.97;;
6999;SDS011;3540;53.242;10.408;2023-03-01T03:35:32;6.70;;;4.20;;
6999;SDS011;3540;53.242;10.408;2023-03-01T03:38:00;6.63;;;4.30;;
6999;SDS011;3540;53.242;10.408;2023-03-01T03:42:58;6.10;;;4.17;;
6999;SDS011;3540;53.242;10.408;2023-03-01T03:45:23;6.93;;;4.00;;
6999;SDS011;3540;53.242;10.408;2023-03-01T03:47:49;6.80;;;4.10;;
6999;SDS011;3540;53.242;10.408;2023-03-01T03:50:15;7.33;;;4.40;;
6999;SDS011;3540;53.242;10.408;2023-03-01T03:52:42;6.43;;;3.87;;
6999;SDS011;3540;53.242;10.408;2023-03-01T03:55:08;5.70;;;3.80;;
6999;SDS011;3540;53.242;10.408;2023-03-01T03:57:35;6.60;;;4.23;;
6999;SDS011;3540;53.242;10.408;2023-03-01T04:00:03;5.63;;;4.00;;
6999;SDS011;3540;53.242;10.408;2023-03-01T04:02:30;6.73;;;4.03;;
6999;SDS011;3540;53.242;10.408;2023-03-01T04:04:56;6.53;;;4.10;;
6999;SDS011;3540;53.242;10.408;2023-03-01T04:07:21;8.87;;;4.30;;
6999;SDS011;3540;53.242;10.408;2023-03-01T04:09:47;6.63;;;4.20;;
6999;SDS011;3540;53.242;10.408;2023-03-01T04:12:13;6.30;;;4.20;;
6999;SDS011;3540;53.242;10.408;2023-03-01T04:14:38;5.53;;;4.07;;
6999;SDS011;3540;53.242;10.408;2023-03-01T04:17:04;7.37;;;4.17;;
6999;SDS011;3540;53.242;10.408;2023-03-01T04:19:30;7.30;;;4.13;;
6999;SDS011;3540;53.242;10.408;2023-03-01T04:22:01;7.23;;;3.87;;
6999;SDS011;3540;53.242;10.408;2023-03-01T04:24:34;5.70;;;3.67;;
6999;SDS011;3540;53.242;10.408;2023-03-01T04:27:00;10.03;;;4.53;;
6999;SDS011;3540;53.242;10.408;2023-03-01T04:29:29;5.57;;;4.13;;
6999;SDS011;3540;53.242;10.408;2023-03-01T04:31:54;8.47;;;4.30;;
6999;SDS011;3540;53.242;10.408;2023-03-01T04:34:20;7.40;;;4.40;;
6999;SDS011;3540;53.242;10.408;2023-03-01T04:36:46;6.13;;;3.87;;
6999;SDS011;3540;53.242;10.408;2023-03-01T04:39:11;6.73;;;3.87;;
6999;SDS011;3540;53.242;10.408;2023-03-01T04:41:37;6.03;;;3.70;;
6999;SDS011;3540;53.242;10.408;2023-03-01T04:44:04;8.43;;;4.27;;
6999;SDS011;3540;53.242;10.408;2023-03-01T04:46:31;5.87;;;3.80;;
6999;SDS011;3540;53.242;10.408;2023-03-01T04:48:57;7.17;;;3.87;;
6999;SDS011;3540;53.242;10.408;2023-03-01T04:51:22;8.97;;;4.10;;
6999;SDS011;3540;53.242;10.408;2023-03-01T04:53:48;8.67;;;4.03;;
6999;SDS011;3540;53.242;10.408;2023-03-01T04:56:14;8.47;;;3.80;;
6999;SDS011;3540;53.242;10.408;2023-03-01T04:58:41;8.30;;;4.13;;
6999;SDS011;3540;53.242;10.408;2023-03-01T05:01:10;7.23;;;3.97;;
6999;SDS011;3540;53.242;10.408;2023-03-01T05:03:44;4.93;;;3.47;;
6999;SDS011;3540;53.242;10.408;2023-03-01T05:06:11;5.93;;;3.47;;
6999;SDS011;3540;53.242;10.408;2023-03-01T05:08:40;6.43;;;3.80;;
6999;SDS011;3540;53.242;10.408;2023-03-01T05:11:06;5.17;;;3.20;;
6999;SDS011;3540;53.242;10.408;2023-03-01T05:13:34;6.93;;;3.43;;
6999;SDS011;3540;53.242;10.408;2023-03-01T05:16:00;7.30;;;3.27;;
6999;SDS011;3540;53.242;10.408;2023-03-01T05:18:27;7.40;;;3.27;;
6999;SDS011;3540;53.242;10.408;2023-03-01T05:20:55;5.07;;;3.37;;
6999;SDS011;3540;53.242;10.408;2023-03-01T05:23:26;7.90;;;3.43;;
6999;SDS011;3540;53.242;10.408;2023-03-01T05:25:51;7.67;;;3.17;;
6999;SDS011;3540;53.242;10.408;2023-03-01T05:28:18;5.33;;;3.20;;
6999;SDS011;3540;53.242;10.408;2023-03-01T05:30:45;6.10;;;3.40;;
6999;SDS011;3540;53.242;10.408;2023-03-01T05:33:11;5.23;;;3.27;;
6999;SDS011;3540;53.242;10.408;2023-03-01T05:35:42;6.93;;;3.57;;
6999;SDS011;3540;53.242;10.408;2023-03-01T05:38:10;7.23;;;3.50;;
6999;SDS011;3540;53.242;10.408;2023-03-01T05:40:43;9.70;;;3.40;;
6999;SDS011;3540;53.242;10.408;2023-03-01T05:43:11;4.23;;;3.27;;
6999;SDS011;3540;53.242;10.408;2023-03-01T05:45:39;8.93;;;5.80;;
6999;SDS011;3540;53.242;10.408;2023-03-01T05:48:06;7.83;;;4.23;;
6999;SDS011;3540;53.242;10.408;2023-03-01T05:50:35;6.90;;;4.20;;
6999;SDS011;3540;53.242;10.408;2023-03-01T05:53:06;7.60;;;4.00;;
6999;SDS011;3540;53.242;10.408;2023-03-01T05:55:34;5.87;;;4.00;;
6999;SDS011;3540;53.242;10.408;2023-03-01T05:58:02;6.00;;;4.03;;
6999;SDS011;3540;53.242;10.408;2023-03-01T06:00:29;6.17;;;3.97;;
6999;SDS011;3540;53.242;10.408;2023-03-01T06:02:55;6.40;;;3.87;;
6999;SDS011;3540;53.242;10.408;2023-03-01T06:05:22;5.23;;;3.67;;
6999;SDS011;3540;53.242;10.408;2023-03-01T06:07:48;7.27;;;3.70;;
6999;SDS011;3540;53.242;10.408;2023-03-01T06:10:15;4.97;;;3.20;;
6999;SDS011;3540;53.242;10.408;2023-03-01T06:12:42;5.57;;;3.70;;
6999;SDS011;3540;53.242;10.408;2023-03-01T06:15:11;4.87;;;3.10;;
6999;SDS011;3540;53.242;10.408;2023-03-01T06:17:39;5.63;;;3.27;;
6999;SDS011;3540;53.242;10.408;2023-03-01T06:20:07;4.57;;;3.27;;
6999;SDS011;3540;53.242;10.408;2023-03-01T06:22:33;4.70;;;3.27;;
6999;SDS011;3540;53.242;10.408;2023-03-01T06:24:59;6.43;;;3.50;;
6999;SDS011;3540;53.242;10.408;2023-03-01T06:27:25;6.40;;;3.27;;
6999;SDS011;3540;53.242;10.408;2023-03-01T06:29:50;6.73;;;3.40;;
6999;SDS011;3540;53.242;10.408;2023-03-01T06:32:17;7.40;;;3.37;;
6999;SDS011;3540;53.242;10.408;2023-03-01T06:34:42;7.17;;;3.43;;
6999;SDS011;3540;53.242;10.408;2023-03-01T06:37:08;5.53;;;3.17;;
6999;SDS011;3540;53.242;10.408;2023-03-01T06:39:34;5.53;;;3.17;;
6999;SDS011;3540;53.242;10.408;2023-03-01T06:41:59;5.73;;;3.50;;
6999;SDS011;3540;53.242;10.408;2023-03-01T06:44:25;4.00;;;3.17;;
6999;SDS011;3540;53.242;10.408;2023-03-01T06:46:51;6.80;;;3.20;;
6999;SDS011;3540;53.242;10.408;2023-03-01T06:49:17;5.80;;;3.33;;
6999;SDS011;3540;53.242;10.408;2023-03-01T06:51:43;4.33;;;2.73;;
6999;SDS011;3540;53.242;10.408;2023-03-01T06:54:09;4.97;;;3.10;;
6999;SDS011;3540;53.242;10.408;2023-03-01T06:56:35;5.77;;;3.10;;
6999;SDS011;3540;53.242;10.408;2023-03-01T06:59:00;6.47;;;2.97;;
6999;SDS011;3540;53.242;10.408;2023-03-01T07:01:27;5.10;;;3.00;;
6999;SDS011;3540;53.242;10.408;2023-03-01T07:03:54;4.60;;;2.87;;
6999;SDS011;3540;53.242;10.408;2023-03-01T07:06:19;4.73;;;2.87;;
6999;SDS011;3540;53.242;10.408;2023-03-01T07:08:45;7.67;;;3.40;;
6999;SDS011;3540;53.242;10.408;2023-03-01T07:11:11;4.40;;;3.03;;
6999;SDS011;3540;53.242;10.408;2023-03-01T07:13:37;4.47;;;3.00;;
6999;SDS011;3540;53.242;10.408;2023-03-01T07:16:02;8.53;;;2.90;;
6999;SDS011;3540;53.242;10.408;2023-03-01T07:18:28;5.13;;;3.17;;
6999;SDS011;3540;53.242;10.408;2023-03-01T07:20:54;4.40;;;3.10;;
6999;SDS011;3540;53.242;10.408;2023-03-01T07:23:19;4.77;;;3.30;;
6999;SDS011;3540;53.242;10.408;2023-03-01T07:25:50;7.83;;;3.87;;
6999;SDS011;3540;53.242;10.408;2023-03-01T07:28:18;5.20;;;3.40;;
6999;SDS011;3540;53.242;10.408;2023-03-01T07:30:46;5.93;;;3.37;;
6999;SDS011;3540;53.242;10.408;2023-03-01T07:33:11;6.87;;;3.17;;
6999;SDS011;3540;53.242;10.408;2023-03-01T07:35:37;7.93;;;3.20;;
6999;SDS011;3540;53.242;10.408;2023-03-01T07:38:02;6.20;;;3.23;;
6999;SDS011;3540;53.242;10.408;2023-03-01T07:40:28;5.43;;;3.30;;
6999;SDS011;3540;53.242;10.408;2023-03-01T07:42:57;8.93;;;3.70;;
6999;SDS011;3540;53.242;10.408;2023-03-01T07:45:23;5.80;;;4.13;;
6999;SDS011;3540;53.242;10.408;2023-03-01T07:47:50;4.87;;;3.70;;
6999;SDS011;3540;53.242;10.408;2023-03-01T07:50:17;5.63;;;3.50;;
6999;SDS011;3540;53.242;10.408;2023-03-01T07:52:45;5.73;;;3.20;;
6999;SDS011;3540;53.242;10.408;2023-03-01T07:55:11;3.90;;;3.10;;
6999;SDS011;3540;53.242;10.408;2023-03-01T07:57:37;4.77;;;3.20;;
6999;SDS011;3540;53.242;10.408;2023-03-01T08:00:03;3.97;;;2.90;;
6999;SDS011;3540;53.242;10.408;2023-03-01T08:02:30;5.00;;;3.20;;
6999;SDS011;3540;53.242;10.408;2023-03-01T08:04:56;7.60;;;3.20;;
6999;SDS011;3540;53.242;10.408;2023-03-01T08:07:21;6.47;;;3.70;;
6999;SDS011;3540;53.242;10.408;2023-03-01T08:09:47;6.73;;;3.73;;
6999;SDS011;3540;53.242;10.408;2023-03-01T08:12:13;5.27;;;3.37;;
6999;SDS011;3540;53.242;10.408;2023-03-01T08:14:41;5.33;;;3.03;;
6999;SDS011;3540;53.242;10.408;2023-03-01T08:17:06;6.93;;;4.03;;
6999;SDS011;3540;53.242;10.408;2023-03-01T08:19:32;9.50;;;3.83;;
6999;SDS011;3540;53.242;10.408;2023-03-01T08:21:59;8.30;;;4.33;;
6999;SDS011;3540;53.242;10.408;2023-03-01T08:24:28;6.80;;;4.13;;
6999;SDS011;3540;53.242;10.408;2023-03-01T08:26:54;6.67;;;3.80;;
6999;SDS011;3540;53.242;10.408;2023-03-01T08:29:20;11.17;;;3.90;;
6999;SDS011;3540;53.242;10.408;2023-03-01T08:31:47;6.70;;;3.80;;
6999;SDS011;3540;53.242;10.408;2023-03-01T08:34:14;6.90;;;4.03;;
6999;SDS011;3540;53.242;10.408;2023-03-01T08:36:41;5.83;;;3.77;;
6999;SDS011;3540;53.242;10.408;2023-03-01T08:39:09;7.83;;;4.53;;
6999;SDS011;3540;53.242;10.408;2023-03-01T08:41:36;6.40;;;4.17;;
6999;SDS011;3540;53.242;10.408;2023-03-01T08:44:02;7.77;;;4.00;;
6999;SDS011;3540;53.242;10.408;2023-03-01T08:46:35;7.33;;;4.50;;
6999;SDS011;3540;53.242;10.408;2023-03-01T08:49:06;7.37;;;4.07;;
6999;SDS011;3540;53.242;10.408;2023-03-01T08:51:37;6.47;;;4.07;;
6999;SDS011;3540;53.242;10.408;2023-03-01T08:54:03;6.50;;;4.30;;
6999;SDS011;3540;53.242;10.408;2023-03-01T08:56:30;6.93;;;4.47;;
6999;SDS011;3540;53.242;10.408;2023-03-01T08:58:56;8.67;;;4.33;;
6999;SDS011;3540;53.242;10.408;2023-03-01T09:01:22;8.63;;;4.90;;
6999;SDS011;3540;53.242;10.408;2023-03-01T09:03:47;10.03;;;5.13;;
6999;SDS011;3540;53.242;10.408;2023-03-01T09:06:13;7.23;;;4.63;;
6999;SDS011;3540;53.242;10.408;2023-03-01T09:08:40;8.20;;;4.83;;
6999;SDS011;3540;53.242;10.408;2023-03-01T09:11:11;7.67;;;3.90;;
6999;SDS011;3540;53.242;10.408;2023-03-01T09:13:38;7.27;;;4.10;;
6999;SDS011;3540;53.242;10.408;2023-03-01T09:16:05;5.60;;;3.30;;
6999;SDS011;3540;53.242;10.408;2023-03-01T09:18:32;8.17;;;3.97;;
6999;SDS011;3540;53.242;10.408;2023-03-01T09:21:00;5.60;;;3.60;;
6999;SDS011;3540;53.242;10.408;2023-03-01T09:23:35;6.77;;;3.47;;
6999;SDS011;3540;53.242;10.408;2023-03-01T09:26:03;9.93;;;4.30;;
6999;SDS011;3540;53.242;10.408;2023-03-01T09:28:34;9.03;;;4.03;;
6999;SDS011;3540;53.242;10.408;2023-03-01T09:31:00;7.60;;;3.93;;
6999;SDS011;3540;53.242;10.408;2023-03-01T09:33:26;6.50;;;4.10;;
6999;SDS011;3540;53.242;10.408;2023-03-01T09:35:56;9.20;;;4.47;;
6999;SDS011;3540;53.242;10.408;2023-03-01T09:38:23;6.53;;;4.60;;
6999;SDS011;3540;53.242;10.408;2023-03-01T09:40:49;6.60;;;4.57;;
6999;SDS011;3540;53.242;10.408;2023-03-01T09:45:45;8.07;;;4.67;;
6999;SDS011;3540;53.242;10.408;2023-03-01T09:48:16;8.43;;;5.37;;
6999;SDS011;3540;53.242;10.408;2023-03-01T09:50:44;8.67;;;4.97;;
6999;SDS011;3540;53.242;10.408;2023-03-01T09:53:27;10.73;;;5.40;;
6999;SDS011;3540;53.242;10.408;2023-03-01T09:56:11;10.50;;;5.80;;
6999;SDS011;3540;53.242;10.408;2023-03-01T10:04:24;10.87;;;5.90;;
6999;SDS011;3540;53.242;10.408;2023-03-01T10:09:35;12.70;;;7.30;;
6999;SDS011;3540;53.242;10.408;2023-03-01T10:12:04;11.80;;;5.90;;
6999;SDS011;3540;53.242;10.408;2023-03-01T10:14:36;10.37;;;5.43;;
6999;SDS011;3540;53.242;10.408;2023-03-01T10:17:28;13.20;;;6.40;;
6999;SDS011;3540;53.242;10.408;2023-03-01T10:22:40;12.43;;;7.13;;
6999;SDS011;3540;53.242;10.408;2023-03-01T10:25:05;12.17;;;6.30;;
6999;SDS011;3540;53.242;10.408;2023-03-01T10:27:46;10.13;;;6.30;;
6999;SDS011;3540;53.242;10.408;2023-03-01T10:33:04;9.50;;;6.10;;
6999;SDS011;3540;53.242;10.408;2023-03-01T10:35:51;14.53;;;6.40;;
6999;SDS011;3540;53.242;10.408;2023-03-01T10:38:17;10.90;;;7.03;;
6999;SDS011;3540;53.242;10.408;2023-03-01T10:40:53;11.83;;;7.03;;
6999;SDS011;3540;53.242;10.408;2023-03-01T10:43:19;10.93;;;6.67;;
6999;SDS011;3540;53.242;10.408;2023-03-01T10:45:46;12.40;;;6.53;;
6999;SDS011;3540;53.242;10.408;2023-03-01T10:48:18;14.83;;;6.90;;
6999;SDS011;3540;53.242;10.408;2023-03-01T10:55:58;11.67;;;6.60;;
6999;SDS011;3540;53.242;10.408;2023-03-01T10:58:35;12.33;;;7.00;;
6999;SDS011;3540;53.242;10.408;2023-03-01T11:01:04;9.23;;;6.17;;
6999;SDS011;3540;53.242;10.408;2023-03-01T11:04:03;12.60;;;7.37;;
6999;SDS011;3540;53.242;10.408;2023-03-01T11:06:32;11.27;;;7.43;;
6999;SDS011;3540;53.242;10.408;2023-03-01T11:09:12;11.97;;;6.90;;
6999;SDS011;3540;53.242;10.408;2023-03-01T11:11:52;10.70;;;7.23;;
6999;SDS011;3540;53.242;10.408;2023-03-01T11:16:58;11.87;;;6.67;;
6999;SDS011;3540;53.242;10.408;2023-03-01T11:19:37;11.00;;;6.47;;
6999;SDS011;3540;53.242;10.408;2023-03-01T11:22:04;12.10;;;7.33;;
6999;SDS011;3540;53.242;10.408;2023-03-01T11:24:38;14.87;;;7.17;;
6999;SDS011;3540;53.242;10.408;2023-03-01T11:29:44;13.93;;;7.33;;
6999;SDS011;3540;53.242;10.408;2023-03-01T11:32:16;13.07;;;7.20;;
6999;SDS011;3540;53.242;10.408;2023-03-01T11:38:18;12.50;;;7.23;;
6999;SDS011;3540;53.242;10.408;2023-03-01T11:45:58;10.73;;;7.10;;
6999;SDS011;3540;53.242;10.408;2023-03-01T11:51:16;10.23;;;7.20;;
6999;SDS011;3540;53.242;10.408;2023-03-01T11:56:32;11.50;;;7.83;;
6999;SDS011;3540;53.242;10.408;2023-03-01T12:06:50;13.40;;;7.90;;
6999;SDS011;3540;53.242;10.408;2023-03-01T12:14:53;10.20;;;6.87;;
6999;SDS011;3540;53.242;10.408;2023-03-01T12:20:30;11.93;;;7.43;;
6999;SDS011;3540;53.242;10.408;2023-03-01T12:51:03;11.23;;;7.57;;
6999;SDS011;3540;53.242;10.408;2023-03-01T12:53:36;12.53;;;7.90;;
6999;SDS011;3540;53.242;10.408;2023-03-01T12:56:15;11.10;;;7.73;;
6999;SDS011;3540;53.242;10.408;2023-03-01T12:59:50;12.50;;;7.43;;
6999;SDS011;3540;53.242;10.408;2023-03-01T13:01:52;10.90;;;7.97;;
6999;SDS011;3540;53.242;10.408;2023-03-01T13:13:19;10.73;;;7.83;;
6999;SDS011;3540;53.242;10.408;2023-03-01T13:15:46;11.30;;;7.93;;
6999;SDS011;3540;53.242;10.408;2023-03-01T13:20:47;10.83;;;8.53;;
6999;SDS011;3540;53.242;10.408;2023-03-01T13:33:46;14.10;;;8.10;;
6999;SDS011;3540;53.242;10.408;2023-03-01T13:49:34;13.87;;;8.60;;
6999;SDS011;3540;53.242;10.408;2023-03-01T13:52:13;12.13;;;8.03;;
6999;SDS011;3540;53.242;10.408;2023-03-01T13:54:55;14.03;;;9.33;;
6999;SDS011;3540;53.242;10.408;2023-03-01T13:57:24;11.60;;;8.07;;
6999;SDS011;3540;53.242;10.408;2023-03-01T13:59:55;13.03;;;7.97;;
6999;SDS011;3540;53.242;10.408;2023-03-01T14:02:20;11.30;;;8.23;;
6999;SDS011;3540;53.242;10.408;2023-03-01T14:04:55;14.50;;;9.63;;
6999;SDS011;3540;53.242;10.408;2023-03-01T14:07:23;12.03;;;8.13;;
6999;SDS011;3540;53.242;10.408;2023-03-01T14:10:02;9.37;;;7.43;;
6999;SDS011;3540;53.242;10.408;2023-03-01T14:20:23;11.90;;;8.73;;
6999;SDS011;3540;53.242;10.408;2023-03-01T14:22:59;15.20;;;8.50;;
6999;SDS011;3540;53.242;10.408;2023-03-01T14:25:36;11.47;;;8.03;;
6999;SDS011;3540;53.242;10.408;2023-03-01T14:30:58;11.97;;;8.30;;
6999;SDS011;3540;53.242;10.408;2023-03-01T14:41:14;11.53;;;7.90;;
6999;SDS011;3540;53.242;10.408;2023-03-01T14:44:05;12.97;;;8.17;;
6999;SDS011;3540;53.242;10.408;2023-03-01T14:46:38;11.80;;;8.00;;
6999;SDS011;3540;53.242;10.408;2023-03-01T14:51:34;10.27;;;7.87;;
6999;SDS011;3540;53.242;10.408;2023-03-01T14:54:18;12.50;;;8.20;;
6999;SDS011;3540;53.242;10.408;2023-03-01T14:56:58;14.10;;;7.93;;
6999;SDS011;3540;53.242;10.408;2023-03-01T14:59:25;10.57;;;7.90;;
6999;SDS011;3540;53.242;10.408;2023-03-01T15:01:51;12.77;;;8.50;;
6999;SDS011;3540;53.242;10.408;2023-03-01T15:04:20;14.10;;;8.93;;
6999;SDS011;3540;53.242;10.408;2023-03-01T15:06:50;10.93;;;7.80;;
6999;SDS011;3540;53.242;10.408;2023-03-01T15:09:17;12.00;;;8.57;;
6999;SDS011;3540;53.242;10.408;2023-03-01T15:11:44;12.73;;;7.57;;
6999;SDS011;3540;53.242;10.408;2023-03-01T15:14:29;11.53;;;7.97;;
6999;SDS011;3540;53.242;10.408;2023-03-01T15:17:28;10.10;;;7.20;;
6999;SDS011;3540;53.242;10.408;2023-03-01T15:19:55;11.07;;;8.33;;
6999;SDS011;3540;53.242;10.408;2023-03-01T15:22:21;13.83;;;8.47;;
6999;SDS011;3540;53.242;10.408;2023-03-01T15:24:50;11.00;;;7.20;;
6999;SDS011;3540;53.242;10.408;2023-03-01T15:27:16;10.20;;;7.77;;
6999;SDS011;3540;53.242;10.408;2023-03-01T15:29:51;11.10;;;7.83;;
6999;SDS011;3540;53.242;10.408;2023-03-01T15:34:48;12.73;;;8.20;;
6999;SDS011;3540;53.242;10.408;2023-03-01T15:37:38;11.50;;;8.37;;
6999;SDS011;3540;53.242;10.408;2023-03-01T15:39:59;10.60;;;8.30;;
6999;SDS011;3540;53.242;10.408;2023-03-01T15:47:41;12.43;;;8.20;;
6999;SDS011;3540;53.242;10.408;2023-03-01T15:50:17;11.07;;;7.93;;
6999;SDS011;3540;53.242;10.408;2023-03-01T15:52:49;10.10;;;7.20;;
6999;SDS011;3540;53.242;10.408;2023-03-01T15:57:43;12.03;;;7.83;;
6999;SDS011;3540;53.242;10.408;2023-03-01T16:00:09;10.10;;;7.77;;
6999;SDS011;3540;53.242;10.408;2023-03-01T16:02:36;11.53;;;7.47;;
6999;SDS011;3540;53.242;10.408;2023-03-01T16:05:03;10.90;;;6.80;;
6999;SDS011;3540;53.242;10.408;2023-03-01T16:07:28;12.20;;;7.37;;
6999;SDS011;3540;53.242;10.408;2023-03-01T16:09:56;10.23;;;7.43;;
6999;SDS011;3540;53.242;10.408;2023-03-01T16:12:22;10.20;;;7.13;;
6999;SDS011;3540;53.242;10.408;2023-03-01T16:14:49;10.03;;;7.23;;
6999;SDS011;3540;53.242;10.408;2023-03-01T16:17:15;12.83;;;8.77;;
6999;SDS011;3540;53.242;10.408;2023-03-01T16:19:40;11.67;;;8.40;;
6999;SDS011;3540;53.242;10.408;2023-03-01T16:22:06;10.57;;;7.63;;
6999;SDS011;3540;53.242;10.408;2023-03-01T16:24:34;13.97;;;8.60;;
6999;SDS011;3540;53.242;10.408;2023-03-01T16:27:00;14.43;;;9.00;;
6999;SDS011;3540;53.242;10.408;2023-03-01T16:29:26;13.67;;;9.10;;
6999;SDS011;3540;53.242;10.408;2023-03-01T16:31:54;12.23;;;8.53;;
6999;SDS011;3540;53.242;10.408;2023-03-01T16:34:20;14.00;;;8.47;;
6999;SDS011;3540;53.242;10.408;2023-03-01T16:36:46;9.97;;;7.13;;
6999;SDS011;3540;53.242;10.408;2023-03-01T16:39:12;12.20;;;8.30;;
6999;SDS011;3540;53.242;10.408;2023-03-01T16:41:38;17.07;;;10.87;;
6999;SDS011;3540;53.242;10.408;2023-03-01T16:44:03;12.70;;;8.77;;
6999;SDS011;3540;53.242;10.408;2023-03-01T16:46:29;12.03;;;8.27;;
6999;SDS011;3540;53.242;10.408;2023-03-01T16:48:55;10.27;;;7.87;;
6999;SDS011;3540;53.242;10.408;2023-03-01T16:51:22;11.87;;;8.00;;
6999;SDS011;3540;53.242;10.408;2023-03-01T16:53:49;17.83;;;10.57;;
6999;SDS011;3540;53.242;10.408;2023-03-01T16:56:15;17.00;;;10.97;;
6999;SDS011;3540;53.242;10.408;2023-03-01T16:58:42;23.03;;;11.63;;
6999;SDS011;3540;53.242;10.408;2023-03-01T17:01:09;18.83;;;11.33;;
6999;SDS011;3540;53.242;10.408;2023-03-01T17:03:37;16.00;;;10.40;;
6999;SDS011;3540;53.242;10.408;2023-03-01T17:06:04;17.23;;;10.60;;
6999;SDS011;3540;53.242;10.408;2023-03-01T17:08:32;17.40;;;10.83;;
6999;SDS011;3540;53.242;10.408;2023-03-01T17:11:04;21.73;;;11.77;;
6999;SDS011;3540;53.242;10.408;2023-03-01T17:13:35;17.57;;;10.83;;
6999;SDS011;3540;53.242;10.408;2023-03-01T17:16:02;17.03;;;9.97;;
6999;SDS011;3540;53.242;10.408;2023-03-01T17:18:29;17.07;;;8.73;;
6999;SDS011;3540;53.242;10.408;2023-03-01T17:20:55;11.57;;;8.20;;
6999;SDS011;3540;53.242;10.408;2023-03-01T17:23:21;18.07;;;7.47;;
6999;SDS011;3540;53.242;10.408;2023-03-01T17:25:47;9.03;;;6.37;;
6999;SDS011;3540;53.242;10.408;2023-03-01T17:28:12;11.03;;;7.30;;
6999;SDS011;3540;53.242;10.408;2023-03-01T17:30:42;10.23;;;7.17;;
6999;SDS011;3540;53.242;10.408;2023-03-01T17:33:09;11.70;;;6.07;;
6999;SDS011;3540;53.242;10.408;2023-03-01T17:35:36;10.63;;;6.87;;
6999;SDS011;3540;53.242;10.408;2023-03-01T17:38:02;9.23;;;6.23;;
6999;SDS011;3540;53.242;10.408;2023-03-01T17:40:29;10.33;;;7.23;;
6999;SDS011;3540;53.242;10.408;2023-03-01T17:42:55;10.70;;;6.87;;
6999;SDS011;3540;53.242;10.408;2023-03-01T17:45:21;9.20;;;6.67;;
6999;SDS011;3540;53.242;10.408;2023-03-01T17:47:47;8.70;;;6.23;;
6999;SDS011;3540;53.242;10.408;2023-03-01T17:50:13;8.83;;;5.80;;
6999;SDS011;3540;53.242;10.408;2023-03-01T17:52:38;8.60;;;5.60;;